sensor_id;sensor_type;location;lat;lon;timestamp;P1;durP1;ratioP1;P2;durP2;ratioP2
49678;SDS011;35570;48.218;16.326;2023-03-23T00:00:42;5.15;;;3.60;;
49678;SDS011;35570;48.218;16.326;2023-03-23T00:03:09;5.80;;;3.00;;
49678;SDS011;35570;48.218;16.326;2023-03-23T00:05:34;4.10;;;3.42;;
49678;SDS011;35570;48.218;16.326;2023-03-23T00:08:02;5.30;;;3.50;;
49678;SDS011;35570;48.218;16.326;2023-03-23T00:10:28;4.97;;;3.35;;
49678;SDS011;35570;48.218;16.326;2023-03-23T00:12:58;4.38;;;3.30;;
49678;SDS011;35570;48.218;16.326;2023-03-23T00:15:27;5.43;;;3.65;;
49678;SDS011;35570;48.218;16.326;2023-03-23T00:18:01;6.70;;;3.22;;
49678;SDS011;35570;48.218;16.326;2023-03-23T00:20:30;5.18;;;3.60;;
49678;SDS011;35570;48.218;16.326;2023-03-23T00:23:04;6.00;;;3.10;;
49678;SDS011;35570;48.218;16.326;2023-03-23T00:25:31;4.82;;;3.25;;
49678;SDS011;35570;48.218;16.326;2023-03-23T00:27:57;4.28;;;3.20;;
49678;SDS011;35570;48.218;16.326;2023-03-23T00:30:23;7.35;;;3.40;;
49678;SDS011;35570;48.218;16.326;2023-03-23T00:32:49;4.93;;;3.30;;
49678;SDS011;35570;48.218;16.326;2023-03-23T00:35:16;4.05;;;2.90;;
49678;SDS011;35570;48.218;16.326;2023-03-23T00:37:42;6.90;;;2.97;;
49678;SDS011;35570;48.218;16.326;2023-03-23T00:40:09;7.70;;;3.08;;
49678;SDS011;35570;48.218;16.326;2023-03-23T00:42:35;5.65;;;2.97;;
49678;SDS011;35570;48.218;16.326;2023-03-23T00:45:03;3.83;;;2.78;;
49678;SDS011;35570;48.218;16.326;2023-03-23T00:47:35;3.42;;;2.70;;
49678;SDS011;35570;48.218;16.326;2023-03-23T00:50:02;3.55;;;3.00;;
49678;SDS011;35570;48.218;16.326;2023-03-23T00:52:30;3.97;;;2.72;;
49678;SDS011;35570;48.218;16.326;2023-03-23T00:54:56;5.50;;;2.78;;
49678;SDS011;35570;48.218;16.326;2023-03-23T00:57:21;4.47;;;2.83;;
49678;SDS011;35570;48.218;16.326;2023-03-23T00:59:49;6.45;;;2.90;;
49678;SDS011;35570;48.218;16.326;2023-03-23T01:02:15;4.15;;;2.78;;
49678;SDS011;35570;48.218;16.326;2023-03-23T01:04:43;5.07;;;2.63;;
49678;SDS011;35570;48.218;16.326;2023-03-23T01:07:09;6.18;;;2.55;;
49678;SDS011;35570;48.218;16.326;2023-03-23T01:09:37;4.22;;;2.85;;
49678;SDS011;35570;48.218;16.326;2023-03-23T01:12:09;4.22;;;2.70;;
49678;SDS011;35570;48.218;16.326;2023-03-23T01:14:35;5.55;;;2.80;;
49678;SDS011;35570;48.218;16.326;2023-03-23T01:17:01;3.45;;;2.58;;
49678;SDS011;35570;48.218;16.326;2023-03-23T01:19:27;4.57;;;2.75;;
49678;SDS011;35570;48.218;16.326;2023-03-23T01:21:53;4.20;;;2.90;;
49678;SDS011;35570;48.218;16.326;2023-03-23T01:24:18;4.15;;;3.40;;
49678;SDS011;35570;48.218;16.326;2023-03-23T01:26:44;3.90;;;2.80;;
49678;SDS011;35570;48.218;16.326;2023-03-23T01:29:10;5.05;;;3.30;;
49678;SDS011;35570;48.218;16.326;2023-03-23T01:31:35;5.63;;;3.40;;
49678;SDS011;35570;48.218;16.326;2023-03-23T01:34:02;4.03;;;3.03;;
49678;SDS011;35570;48.218;16.326;2023-03-23T01:36:29;6.88;;;3.50;;
49678;SDS011;35570;48.218;16.326;2023-03-23T01:38:57;5.50;;;3.60;;
49678;SDS011;35570;48.218;16.326;2023-03-23T01:41:25;4.70;;;3.80;;
49678;SDS011;35570;48.218;16.326;2023-03-23T01:46:30;6.55;;;3.95;;
49678;SDS011;35570;48.218;16.326;2023-03-23T01:48:58;6.28;;;3.85;;
49678;SDS011;35570;48.218;16.326;2023-03-23T01:51:34;4.70;;;3.72;;
49678;SDS011;35570;48.218;16.326;2023-03-23T01:54:05;4.97;;;3.90;;
49678;SDS011;35570;48.218;16.326;2023-03-23T01:56:38;4.90;;;3.50;;
49678;SDS011;35570;48.218;16.326;2023-03-23T01:59:10;5.25;;;3.35;;
49678;SDS011;35570;48.218;16.326;2023-03-23T02:01:36;5.22;;;3.00;;
49678;SDS011;35570;48.218;16.326;2023-03-23T02:04:04;6.07;;;3.40;;
49678;SDS011;35570;48.218;16.326;2023-03-23T02:06:30;5.10;;;3.00;;
49678;SDS011;35570;48.218;16.326;2023-03-23T02:08:56;7.72;;;3.00;;
49678;SDS011;35570;48.218;16.326;2023-03-23T02:11:23;5.80;;;3.25;;
49678;SDS011;35570;48.218;16.326;2023-03-23T02:13:49;6.78;;;3.42;;
49678;SDS011;35570;48.218;16.326;2023-03-23T02:32:11;4.90;;;2.80;;
49678;SDS011;35570;48.218;16.326;2023-03-23T02:34:41;9.07;;;2.85;;
49678;SDS011;35570;48.218;16.326;2023-03-23T02:40:14;5.07;;;3.22;;
49678;SDS011;35570;48.218;16.326;2023-03-23T02:42:47;5.13;;;2.92;;
49678;SDS011;35570;48.218;16.326;2023-03-23T02:45:16;4.63;;;3.05;;
49678;SDS011;35570;48.218;16.326;2023-03-23T02:47:44;3.97;;;2.85;;
49678;SDS011;35570;48.218;16.326;2023-03-23T02:50:13;3.58;;;2.70;;
49678;SDS011;35570;48.218;16.326;2023-03-23T02:52:41;7.13;;;2.97;;
49678;SDS011;35570;48.218;16.326;2023-03-23T02:55:09;3.65;;;3.00;;
49678;SDS011;35570;48.218;16.326;2023-03-23T02:57:36;5.10;;;3.13;;
49678;SDS011;35570;48.218;16.326;2023-03-23T03:00:06;4.28;;;2.92;;
49678;SDS011;35570;48.218;16.326;2023-03-23T03:02:38;4.32;;;3.13;;
49678;SDS011;35570;48.218;16.326;2023-03-23T03:10:59;4.28;;;3.08;;
49678;SDS011;35570;48.218;16.326;2023-03-23T03:16:23;4.95;;;2.80;;
49678;SDS011;35570;48.218;16.326;2023-03-23T03:19:02;4.13;;;2.88;;
49678;SDS011;35570;48.218;16.326;2023-03-23T03:21:29;5.35;;;3.40;;
49678;SDS011;35570;48.218;16.326;2023-03-23T03:23:59;4.30;;;2.55;;
49678;SDS011;35570;48.218;16.326;2023-03-23T03:26:28;19.48;;;4.07;;
49678;SDS011;35570;48.218;16.326;2023-03-23T03:28:56;3.65;;;2.92;;
49678;SDS011;35570;48.218;16.326;2023-03-23T03:31:23;4.50;;;2.95;;
49678;SDS011;35570;48.218;16.326;2023-03-23T03:33:52;4.97;;;3.13;;
49678;SDS011;35570;48.218;16.326;2023-03-23T03:36:23;7.05;;;3.22;;
49678;SDS011;35570;48.218;16.326;2023-03-23T03:38:52;5.47;;;3.03;;
49678;SDS011;35570;48.218;16.326;2023-03-23T03:41:18;5.70;;;2.88;;
49678;SDS011;35570;48.218;16.326;2023-03-23T03:43:44;3.80;;;2.88;;
49678;SDS011;35570;48.218;16.326;2023-03-23T03:46:10;4.00;;;3.10;;
49678;SDS011;35570;48.218;16.326;2023-03-23T03:48:36;4.78;;;3.00;;
49678;SDS011;35570;48.218;16.326;2023-03-23T03:51:02;6.85;;;3.25;;
49678;SDS011;35570;48.218;16.326;2023-03-23T03:53:28;3.38;;;2.90;;
49678;SDS011;35570;48.218;16.326;2023-03-23T03:55:55;4.25;;;3.22;;
49678;SDS011;35570;48.218;16.326;2023-03-23T03:58:22;6.03;;;3.38;;
49678;SDS011;35570;48.218;16.326;2023-03-23T04:00:48;5.00;;;2.63;;
49678;SDS011;35570;48.218;16.326;2023-03-23T04:03:15;5.00;;;2.80;;
49678;SDS011;35570;48.218;16.326;2023-03-23T04:05:41;5.28;;;2.85;;
49678;SDS011;35570;48.218;16.326;2023-03-23T04:08:09;4.47;;;2.80;;
49678;SDS011;35570;48.218;16.326;2023-03-23T04:10:36;4.07;;;2.70;;
49678;SDS011;35570;48.218;16.326;2023-03-23T04:13:02;6.65;;;3.72;;
49678;SDS011;35570;48.218;16.326;2023-03-23T04:15:29;4.57;;;3.05;;
49678;SDS011;35570;48.218;16.326;2023-03-23T04:17:55;3.95;;;2.97;;
49678;SDS011;35570;48.218;16.326;2023-03-23T04:20:22;4.07;;;3.17;;
49678;SDS011;35570;48.218;16.326;2023-03-23T04:22:48;4.85;;;3.30;;
49678;SDS011;35570;48.218;16.326;2023-03-23T04:25:15;4.68;;;3.20;;
49678;SDS011;35570;48.218;16.326;2023-03-23T04:27:45;3.80;;;2.78;;
49678;SDS011;35570;48.218;16.326;2023-03-23T04:30:17;3.78;;;3.05;;
49678;SDS011;35570;48.218;16.326;2023-03-23T04:32:44;4.28;;;3.50;;
49678;SDS011;35570;48.218;16.326;2023-03-23T04:35:12;4.35;;;2.92;;
49678;SDS011;35570;48.218;16.326;2023-03-23T04:37:39;5.43;;;3.22;;
49678;SDS011;35570;48.218;16.326;2023-03-23T04:40:06;5.32;;;3.63;;
49678;SDS011;35570;48.218;16.326;2023-03-23T04:42:36;9.68;;;5.55;;
49678;SDS011;35570;48.218;16.326;2023-03-23T04:45:02;7.60;;;5.20;;
49678;SDS011;35570;48.218;16.326;2023-03-23T04:47:31;7.40;;;5.00;;
49678;SDS011;35570;48.218;16.326;2023-03-23T04:49:59;7.07;;;4.47;;
49678;SDS011;35570;48.218;16.326;2023-03-23T04:52:25;5.70;;;3.95;;
49678;SDS011;35570;48.218;16.326;2023-03-23T04:54:53;5.10;;;3.92;;
49678;SDS011;35570;48.218;16.326;2023-03-23T04:57:20;4.22;;;3.50;;
49678;SDS011;35570;48.218;16.326;2023-03-23T04:59:47;5.72;;;3.60;;
49678;SDS011;35570;48.218;16.326;2023-03-23T05:02:13;5.63;;;3.80;;
49678;SDS011;35570;48.218;16.326;2023-03-23T05:04:40;6.53;;;3.50;;
49678;SDS011;35570;48.218;16.326;2023-03-23T05:07:06;4.25;;;3.38;;
49678;SDS011;35570;48.218;16.326;2023-03-23T05:09:33;9.02;;;4.25;;
49678;SDS011;35570;48.218;16.326;2023-03-23T05:12:09;6.22;;;3.60;;
49678;SDS011;35570;48.218;16.326;2023-03-23T05:14:35;5.90;;;4.03;;
49678;SDS011;35570;48.218;16.326;2023-03-23T05:17:05;8.68;;;4.93;;
49678;SDS011;35570;48.218;16.326;2023-03-23T05:19:32;6.82;;;4.43;;
49678;SDS011;35570;48.218;16.326;2023-03-23T05:21:58;13.63;;;6.22;;
49678;SDS011;35570;48.218;16.326;2023-03-23T05:24:29;7.75;;;4.97;;
49678;SDS011;35570;48.218;16.326;2023-03-23T05:26:57;9.73;;;5.13;;
49678;SDS011;35570;48.218;16.326;2023-03-23T05:29:24;8.23;;;4.75;;
49678;SDS011;35570;48.218;16.326;2023-03-23T05:31:50;7.82;;;4.85;;
49678;SDS011;35570;48.218;16.326;2023-03-23T05:34:18;5.43;;;3.95;;
49678;SDS011;35570;48.218;16.326;2023-03-23T05:36:44;11.07;;;4.95;;
49678;SDS011;35570;48.218;16.326;2023-03-23T05:39:11;9.40;;;4.63;;
49678;SDS011;35570;48.218;16.326;2023-03-23T05:41:38;8.93;;;5.50;;
49678;SDS011;35570;48.218;16.326;2023-03-23T05:44:04;8.65;;;4.80;;
49678;SDS011;35570;48.218;16.326;2023-03-23T05:46:30;9.68;;;4.60;;
49678;SDS011;35570;48.218;16.326;2023-03-23T05:48:55;8.27;;;4.90;;
49678;SDS011;35570;48.218;16.326;2023-03-23T05:51:21;8.07;;;4.72;;
49678;SDS011;35570;48.218;16.326;2023-03-23T05:53:47;8.93;;;4.65;;
49678;SDS011;35570;48.218;16.326;2023-03-23T05:56:13;7.30;;;4.68;;
49678;SDS011;35570;48.218;16.326;2023-03-23T05:58:39;8.55;;;4.90;;
49678;SDS011;35570;48.218;16.326;2023-03-23T06:01:07;6.38;;;4.53;;
49678;SDS011;35570;48.218;16.326;2023-03-23T06:03:33;8.80;;;5.22;;
49678;SDS011;35570;48.218;16.326;2023-03-23T06:06:01;11.23;;;4.85;;
49678;SDS011;35570;48.218;16.326;2023-03-23T06:08:28;10.48;;;5.65;;
49678;SDS011;35570;48.218;16.326;2023-03-23T06:10:53;8.27;;;4.78;;
49678;SDS011;35570;48.218;16.326;2023-03-23T06:13:20;7.68;;;4.85;;
49678;SDS011;35570;48.218;16.326;2023-03-23T06:15:46;8.88;;;5.70;;
49678;SDS011;35570;48.218;16.326;2023-03-23T06:18:12;9.38;;;4.55;;
49678;SDS011;35570;48.218;16.326;2023-03-23T06:20:39;10.18;;;4.82;;
49678;SDS011;35570;48.218;16.326;2023-03-23T06:23:05;6.97;;;4.75;;
49678;SDS011;35570;48.218;16.326;2023-03-23T06:25:31;6.85;;;4.63;;
49678;SDS011;35570;48.218;16.326;2023-03-23T06:27:58;7.03;;;4.85;;
49678;SDS011;35570;48.218;16.326;2023-03-23T06:30:24;9.65;;;6.05;;
49678;SDS011;35570;48.218;16.326;2023-03-23T06:32:50;9.52;;;6.57;;
49678;SDS011;35570;48.218;16.326;2023-03-23T06:35:17;6.78;;;6.00;;
49678;SDS011;35570;48.218;16.326;2023-03-23T06:37:42;7.55;;;5.95;;
49678;SDS011;35570;48.218;16.326;2023-03-23T06:40:08;12.13;;;6.63;;
49678;SDS011;35570;48.218;16.326;2023-03-23T06:42:37;9.02;;;6.50;;
49678;SDS011;35570;48.218;16.326;2023-03-23T06:45:04;10.45;;;6.50;;
49678;SDS011;35570;48.218;16.326;2023-03-23T06:47:30;8.48;;;6.38;;
49678;SDS011;35570;48.218;16.326;2023-03-23T06:49:56;9.63;;;6.53;;
49678;SDS011;35570;48.218;16.326;2023-03-23T06:52:23;9.52;;;6.45;;
49678;SDS011;35570;48.218;16.326;2023-03-23T06:54:50;11.77;;;6.78;;
49678;SDS011;35570;48.218;16.326;2023-03-23T06:57:16;12.18;;;6.53;;
49678;SDS011;35570;48.218;16.326;2023-03-23T06:59:43;13.73;;;6.60;;
49678;SDS011;35570;48.218;16.326;2023-03-23T07:02:09;9.98;;;7.00;;
49678;SDS011;35570;48.218;16.326;2023-03-23T07:04:36;12.40;;;6.90;;
49678;SDS011;35570;48.218;16.326;2023-03-23T07:07:03;9.85;;;7.18;;
49678;SDS011;35570;48.218;16.326;2023-03-23T07:09:30;9.40;;;6.97;;
49678;SDS011;35570;48.218;16.326;2023-03-23T07:11:56;15.45;;;7.72;;
49678;SDS011;35570;48.218;16.326;2023-03-23T07:14:21;10.15;;;7.22;;
49678;SDS011;35570;48.218;16.326;2023-03-23T07:16:47;12.68;;;7.10;;
49678;SDS011;35570;48.218;16.326;2023-03-23T07:19:13;13.05;;;7.03;;
49678;SDS011;35570;48.218;16.326;2023-03-23T07:21:39;9.45;;;7.72;;
49678;SDS011;35570;48.218;16.326;2023-03-23T07:24:05;13.38;;;8.30;;
49678;SDS011;35570;48.218;16.326;2023-03-23T07:26:36;15.13;;;7.55;;
49678;SDS011;35570;48.218;16.326;2023-03-23T07:29:02;10.25;;;7.70;;
49678;SDS011;35570;48.218;16.326;2023-03-23T07:31:28;15.80;;;7.82;;
49678;SDS011;35570;48.218;16.326;2023-03-23T07:33:54;10.38;;;7.30;;
49678;SDS011;35570;48.218;16.326;2023-03-23T07:36:19;12.18;;;7.18;;
49678;SDS011;35570;48.218;16.326;2023-03-23T07:38:45;11.45;;;7.60;;
49678;SDS011;35570;48.218;16.326;2023-03-23T07:41:11;9.70;;;7.50;;
49678;SDS011;35570;48.218;16.326;2023-03-23T07:43:36;10.23;;;6.80;;
49678;SDS011;35570;48.218;16.326;2023-03-23T07:46:02;11.57;;;7.35;;
49678;SDS011;35570;48.218;16.326;2023-03-23T07:48:27;11.23;;;7.30;;
49678;SDS011;35570;48.218;16.326;2023-03-23T07:50:53;12.88;;;7.60;;
49678;SDS011;35570;48.218;16.326;2023-03-23T07:53:19;13.23;;;7.45;;
49678;SDS011;35570;48.218;16.326;2023-03-23T07:55:46;10.88;;;7.00;;
49678;SDS011;35570;48.218;16.326;2023-03-23T07:58:12;10.18;;;6.90;;
49678;SDS011;35570;48.218;16.326;2023-03-23T08:00:43;13.70;;;8.65;;
49678;SDS011;35570;48.218;16.326;2023-03-23T08:03:09;13.20;;;9.07;;
49678;SDS011;35570;48.218;16.326;2023-03-23T08:05:35;13.07;;;7.70;;
49678;SDS011;35570;48.218;16.326;2023-03-23T08:08:01;12.98;;;7.35;;
49678;SDS011;35570;48.218;16.326;2023-03-23T08:10:26;12.18;;;7.10;;
49678;SDS011;35570;48.218;16.326;2023-03-23T08:12:53;18.40;;;11.70;;
49678;SDS011;35570;48.218;16.326;2023-03-23T08:15:20;14.27;;;9.45;;
49678;SDS011;35570;48.218;16.326;2023-03-23T08:17:46;12.85;;;8.57;;
49678;SDS011;35570;48.218;16.326;2023-03-23T08:20:13;11.75;;;8.45;;
49678;SDS011;35570;48.218;16.326;2023-03-23T08:22:40;19.45;;;9.02;;
49678;SDS011;35570;48.218;16.326;2023-03-23T08:25:08;16.08;;;8.73;;
49678;SDS011;35570;48.218;16.326;2023-03-23T08:27:35;12.50;;;8.45;;
49678;SDS011;35570;48.218;16.326;2023-03-23T08:30:02;11.05;;;8.77;;
49678;SDS011;35570;48.218;16.326;2023-03-23T08:32:32;12.63;;;8.50;;
49678;SDS011;35570;48.218;16.326;2023-03-23T08:34:58;16.83;;;9.25;;
49678;SDS011;35570;48.218;16.326;2023-03-23T08:37:23;15.27;;;8.30;;
49678;SDS011;35570;48.218;16.326;2023-03-23T08:39:53;15.25;;;8.45;;
49678;SDS011;35570;48.218;16.326;2023-03-23T08:42:20;16.52;;;9.27;;
49678;SDS011;35570;48.218;16.326;2023-03-23T08:44:45;17.52;;;8.52;;
49678;SDS011;35570;48.218;16.326;2023-03-23T08:47:11;13.95;;;8.43;;
49678;SDS011;35570;48.218;16.326;2023-03-23T08:49:37;13.45;;;8.65;;
49678;SDS011;35570;48.218;16.326;2023-03-23T08:52:02;11.68;;;8.25;;
49678;SDS011;35570;48.218;16.326;2023-03-23T08:54:28;15.32;;;8.73;;
49678;SDS011;35570;48.218;16.326;2023-03-23T08:56:55;13.80;;;8.98;;
49678;SDS011;35570;48.218;16.326;2023-03-23T08:59:24;16.60;;;8.60;;
49678;SDS011;35570;48.218;16.326;2023-03-23T09:01:50;16.90;;;8.10;;
49678;SDS011;35570;48.218;16.326;2023-03-23T09:04:15;14.30;;;8.20;;
49678;SDS011;35570;48.218;16.326;2023-03-23T09:06:41;14.57;;;7.35;;
49678;SDS011;35570;48.218;16.326;2023-03-23T09:09:07;13.20;;;7.78;;
49678;SDS011;35570;48.218;16.326;2023-03-23T09:11:34;12.30;;;7.35;;
49678;SDS011;35570;48.218;16.326;2023-03-23T09:14:01;16.00;;;8.20;;
49678;SDS011;35570;48.218;16.326;2023-03-23T09:16:28;11.65;;;7.45;;
49678;SDS011;35570;48.218;16.326;2023-03-23T09:18:54;16.63;;;8.27;;
49678;SDS011;35570;48.218;16.326;2023-03-23T09:21:22;14.15;;;7.25;;
49678;SDS011;35570;48.218;16.326;2023-03-23T09:23:51;14.65;;;7.72;;
49678;SDS011;35570;48.218;16.326;2023-03-23T09:26:23;14.18;;;8.00;;
49678;SDS011;35570;48.218;16.326;2023-03-23T09:28:50;12.93;;;7.85;;
49678;SDS011;35570;48.218;16.326;2023-03-23T09:31:17;16.27;;;8.93;;
49678;SDS011;35570;48.218;16.326;2023-03-23T09:33:45;15.13;;;7.43;;
49678;SDS011;35570;48.218;16.326;2023-03-23T09:36:12;15.80;;;7.00;;
49678;SDS011;35570;48.218;16.326;2023-03-23T09:38:39;11.88;;;7.75;;
49678;SDS011;35570;48.218;16.326;2023-03-23T09:47:21;10.25;;;7.05;;
49678;SDS011;35570;48.218;16.326;2023-03-23T09:50:08;16.95;;;6.95;;
49678;SDS011;35570;48.218;16.326;2023-03-23T09:52:57;10.60;;;7.22;;
49678;SDS011;35570;48.218;16.326;2023-03-23T09:55:44;7.75;;;6.63;;
49678;SDS011;35570;48.218;16.326;2023-03-23T10:01:10;12.10;;;6.80;;
49678;SDS011;35570;48.218;16.326;2023-03-23T10:03:52;12.88;;;7.35;;
49678;SDS011;35570;48.218;16.326;2023-03-23T10:08:58;9.60;;;6.78;;
49678;SDS011;35570;48.218;16.326;2023-03-23T10:14:23;10.38;;;6.38;;
49678;SDS011;35570;48.218;16.326;2023-03-23T10:17:08;11.23;;;6.22;;
49678;SDS011;35570;48.218;16.326;2023-03-23T10:22:24;14.35;;;6.82;;
49678;SDS011;35570;48.218;16.326;2023-03-23T10:30:21;10.07;;;6.10;;
49678;SDS011;35570;48.218;16.326;2023-03-23T10:32:52;12.18;;;6.80;;
49678;SDS011;35570;48.218;16.326;2023-03-23T10:35:29;9.98;;;5.97;;
49678;SDS011;35570;48.218;16.326;2023-03-23T10:38:01;13.23;;;6.93;;
49678;SDS011;35570;48.218;16.326;2023-03-23T10:40:35;12.32;;;6.60;;
49678;SDS011;35570;48.218;16.326;2023-03-23T10:43:10;9.73;;;6.68;;
49678;SDS011;35570;48.218;16.326;2023-03-23T10:45:36;9.80;;;6.30;;
49678;SDS011;35570;48.218;16.326;2023-03-23T10:50:36;8.32;;;6.68;;
49678;SDS011;35570;48.218;16.326;2023-03-23T10:53:10;10.90;;;7.05;;
49678;SDS011;35570;48.218;16.326;2023-03-23T10:55:40;11.82;;;6.72;;
49678;SDS011;35570;48.218;16.326;2023-03-23T10:58:11;10.48;;;7.38;;
49678;SDS011;35570;48.218;16.326;2023-03-23T11:00:46;12.25;;;7.28;;
49678;SDS011;35570;48.218;16.326;2023-03-23T11:08:22;9.18;;;5.80;;
49678;SDS011;35570;48.218;16.326;2023-03-23T11:13:37;10.85;;;5.60;;
49678;SDS011;35570;48.218;16.326;2023-03-23T11:16:32;13.82;;;5.60;;
49678;SDS011;35570;48.218;16.326;2023-03-23T11:19:11;11.57;;;5.93;;
49678;SDS011;35570;48.218;16.326;2023-03-23T11:21:39;10.68;;;5.65;;
49678;SDS011;35570;48.218;16.326;2023-03-23T11:24:07;12.75;;;5.25;;
49678;SDS011;35570;48.218;16.326;2023-03-23T11:26:34;16.70;;;6.25;;
49678;SDS011;35570;48.218;16.326;2023-03-23T11:29:13;7.85;;;5.25;;
49678;SDS011;35570;48.218;16.326;2023-03-23T11:34:16;12.30;;;5.15;;
49678;SDS011;35570;48.218;16.326;2023-03-23T11:36:48;7.72;;;5.25;;
49678;SDS011;35570;48.218;16.326;2023-03-23T11:39:21;8.63;;;5.88;;
49678;SDS011;35570;48.218;16.326;2023-03-23T11:41:55;7.72;;;5.13;;
49678;SDS011;35570;48.218;16.326;2023-03-23T11:44:23;10.40;;;6.32;;
49678;SDS011;35570;48.218;16.326;2023-03-23T11:47:01;12.50;;;5.88;;
49678;SDS011;35570;48.218;16.326;2023-03-23T11:52:35;12.20;;;6.72;;
49678;SDS011;35570;48.218;16.326;2023-03-23T11:57:52;8.63;;;5.90;;
49678;SDS011;35570;48.218;16.326;2023-03-23T12:00:20;8.93;;;5.30;;
49678;SDS011;35570;48.218;16.326;2023-03-23T12:05:30;6.57;;;4.70;;
49678;SDS011;35570;48.218;16.326;2023-03-23T12:13:59;8.30;;;5.10;;
49678;SDS011;35570;48.218;16.326;2023-03-23T12:19:19;6.00;;;4.35;;
49678;SDS011;35570;48.218;16.326;2023-03-23T12:48:04;12.55;;;4.60;;
49678;SDS011;35570;48.218;16.326;2023-03-23T12:51:07;8.43;;;5.35;;
49678;SDS011;35570;48.218;16.326;2023-03-23T12:53:44;11.63;;;5.20;;
49678;SDS011;35570;48.218;16.326;2023-03-23T12:56:16;11.65;;;4.85;;
49678;SDS011;35570;48.218;16.326;2023-03-23T12:58:49;6.00;;;4.50;;
49678;SDS011;35570;48.218;16.326;2023-03-23T13:01:23;13.77;;;4.63;;
49678;SDS011;35570;48.218;16.326;2023-03-23T13:03:59;7.25;;;4.07;;
49678;SDS011;35570;48.218;16.326;2023-03-23T13:06:55;8.52;;;4.30;;
49678;SDS011;35570;48.218;16.326;2023-03-23T13:09:31;6.38;;;4.25;;
49678;SDS011;35570;48.218;16.326;2023-03-23T13:12:12;5.80;;;3.53;;
49678;SDS011;35570;48.218;16.326;2023-03-23T13:14:49;10.07;;;4.40;;
49678;SDS011;35570;48.218;16.326;2023-03-23T13:23:20;9.55;;;4.03;;
49678;SDS011;35570;48.218;16.326;2023-03-23T13:28:27;8.13;;;3.85;;
49678;SDS011;35570;48.218;16.326;2023-03-23T13:33:21;5.78;;;3.72;;
49678;SDS011;35570;48.218;16.326;2023-03-23T13:35:48;5.32;;;3.25;;
49678;SDS011;35570;48.218;16.326;2023-03-23T13:38:28;5.43;;;3.20;;
49678;SDS011;35570;48.218;16.326;2023-03-23T13:40:54;4.00;;;2.72;;
49678;SDS011;35570;48.218;16.326;2023-03-23T13:43:29;4.03;;;2.70;;
49678;SDS011;35570;48.218;16.326;2023-03-23T13:48:47;5.75;;;2.90;;
49678;SDS011;35570;48.218;16.326;2023-03-23T14:01:53;6.72;;;2.50;;
49678;SDS011;35570;48.218;16.326;2023-03-23T14:04:20;4.25;;;2.65;;
49678;SDS011;35570;48.218;16.326;2023-03-23T14:06:48;6.43;;;2.53;;
49678;SDS011;35570;48.218;16.326;2023-03-23T14:11:48;6.05;;;2.95;;
49678;SDS011;35570;48.218;16.326;2023-03-23T14:14:18;7.00;;;2.63;;
49678;SDS011;35570;48.218;16.326;2023-03-23T14:16:49;5.55;;;2.65;;
49678;SDS011;35570;48.218;16.326;2023-03-23T14:19:27;5.25;;;2.30;;
49678;SDS011;35570;48.218;16.326;2023-03-23T14:21:55;4.93;;;2.85;;
49678;SDS011;35570;48.218;16.326;2023-03-23T14:24:26;6.30;;;2.55;;
49678;SDS011;35570;48.218;16.326;2023-03-23T14:27:01;4.25;;;2.40;;
49678;SDS011;35570;48.218;16.326;2023-03-23T14:29:30;6.07;;;2.75;;
49678;SDS011;35570;48.218;16.326;2023-03-23T14:31:56;6.45;;;2.28;;
49678;SDS011;35570;48.218;16.326;2023-03-23T14:34:28;8.48;;;2.53;;
49678;SDS011;35570;48.218;16.326;2023-03-23T14:36:56;5.05;;;2.50;;
49678;SDS011;35570;48.218;16.326;2023-03-23T14:39:27;5.35;;;2.65;;
49678;SDS011;35570;48.218;16.326;2023-03-23T14:41:56;4.17;;;2.27;;
49678;SDS011;35570;48.218;16.326;2023-03-23T14:44:32;7.28;;;2.97;;
49678;SDS011;35570;48.218;16.326;2023-03-23T14:47:09;4.47;;;2.65;;
49678;SDS011;35570;48.218;16.326;2023-03-23T14:49:44;5.90;;;2.40;;
49678;SDS011;35570;48.218;16.326;2023-03-23T14:52:12;7.05;;;3.13;;
49678;SDS011;35570;48.218;16.326;2023-03-23T14:54:39;10.73;;;2.45;;
49678;SDS011;35570;48.218;16.326;2023-03-23T14:57:16;7.07;;;2.50;;
49678;SDS011;35570;48.218;16.326;2023-03-23T15:02:20;4.32;;;2.13;;
49678;SDS011;35570;48.218;16.326;2023-03-23T15:04:48;5.72;;;1.95;;
49678;SDS011;35570;48.218;16.326;2023-03-23T15:07:20;4.07;;;2.00;;
49678;SDS011;35570;48.218;16.326;2023-03-23T15:09:49;5.75;;;2.53;;
49678;SDS011;35570;48.218;16.326;2023-03-23T15:12:19;5.05;;;1.90;;
49678;SDS011;35570;48.218;16.326;2023-03-23T15:15:01;4.78;;;2.17;;
49678;SDS011;35570;48.218;16.326;2023-03-23T15:17:29;3.20;;;2.00;;
49678;SDS011;35570;48.218;16.326;2023-03-23T15:20:00;3.03;;;1.80;;
49678;SDS011;35570;48.218;16.326;2023-03-23T15:22:35;4.88;;;1.80;;
49678;SDS011;35570;48.218;16.326;2023-03-23T15:25:11;5.80;;;1.90;;
49678;SDS011;35570;48.218;16.326;2023-03-23T15:27:43;6.00;;;2.00;;
49678;SDS011;35570;48.218;16.326;2023-03-23T15:32:53;3.05;;;2.08;;
49678;SDS011;35570;48.218;16.326;2023-03-23T15:35:24;3.92;;;2.08;;
49678;SDS011;35570;48.218;16.326;2023-03-23T15:38:00;5.10;;;2.40;;
49678;SDS011;35570;48.218;16.326;2023-03-23T15:40:32;5.60;;;2.15;;
49678;SDS011;35570;48.218;16.326;2023-03-23T15:43:15;4.65;;;2.20;;
49678;SDS011;35570;48.218;16.326;2023-03-23T15:48:20;6.50;;;2.40;;
49678;SDS011;35570;48.218;16.326;2023-03-23T15:50:47;6.82;;;2.72;;
49678;SDS011;35570;48.218;16.326;2023-03-23T15:53:34;6.18;;;2.90;;
49678;SDS011;35570;48.218;16.326;2023-03-23T15:56:03;8.32;;;2.90;;
49678;SDS011;35570;48.218;16.326;2023-03-23T15:58:31;5.35;;;2.80;;
49678;SDS011;35570;48.218;16.326;2023-03-23T16:00:58;7.32;;;2.65;;
49678;SDS011;35570;48.218;16.326;2023-03-23T16:03:27;5.15;;;3.67;;
49678;SDS011;35570;48.218;16.326;2023-03-23T16:06:03;4.93;;;3.47;;
49678;SDS011;35570;48.218;16.326;2023-03-23T16:08:28;9.35;;;3.53;;
49678;SDS011;35570;48.218;16.326;2023-03-23T16:10:54;8.70;;;4.05;;
49678;SDS011;35570;48.218;16.326;2023-03-23T16:13:20;8.52;;;3.85;;
49678;SDS011;35570;48.218;16.326;2023-03-23T16:15:46;7.28;;;3.90;;
49678;SDS011;35570;48.218;16.326;2023-03-23T16:18:17;9.43;;;3.80;;
49678;SDS011;35570;48.218;16.326;2023-03-23T16:20:45;9.35;;;3.60;;
49678;SDS011;35570;48.218;16.326;2023-03-23T16:23:12;6.13;;;3.10;;
49678;SDS011;35570;48.218;16.326;2023-03-23T16:25:37;8.02;;;3.40;;
49678;SDS011;35570;48.218;16.326;2023-03-23T16:28:03;6.93;;;4.03;;
49678;SDS011;35570;48.218;16.326;2023-03-23T16:30:32;5.68;;;3.60;;
49678;SDS011;35570;48.218;16.326;2023-03-23T16:32:59;10.10;;;4.05;;
49678;SDS011;35570;48.218;16.326;2023-03-23T16:35:25;7.63;;;3.60;;
49678;SDS011;35570;48.218;16.326;2023-03-23T16:37:52;7.93;;;4.00;;
49678;SDS011;35570;48.218;16.326;2023-03-23T16:40:19;8.05;;;3.72;;
49678;SDS011;35570;48.218;16.326;2023-03-23T16:42:46;5.60;;;4.00;;
49678;SDS011;35570;48.218;16.326;2023-03-23T16:45:12;10.02;;;4.38;;
49678;SDS011;35570;48.218;16.326;2023-03-23T16:47:39;7.22;;;4.32;;
49678;SDS011;35570;48.218;16.326;2023-03-23T16:50:06;10.55;;;3.72;;
49678;SDS011;35570;48.218;16.326;2023-03-23T16:52:36;8.23;;;4.10;;
49678;SDS011;35570;48.218;16.326;2023-03-23T16:55:02;8.68;;;4.47;;
49678;SDS011;35570;48.218;16.326;2023-03-23T16:57:29;6.25;;;3.72;;
49678;SDS011;35570;48.218;16.326;2023-03-23T16:59:58;11.23;;;4.60;;
49678;SDS011;35570;48.218;16.326;2023-03-23T17:02:24;6.80;;;4.40;;
49678;SDS011;35570;48.218;16.326;2023-03-23T17:04:50;10.75;;;5.00;;